sensor_id;sensor_type;location;lat;lon;timestamp;pressure;altitude;pressure_sealevel;temperature;humidity
16777;BME280;8505;49.456;8.164;2023-07-13T00:01:49;99700.25;;;18.17;61.40
16777;BME280;8505;49.456;8.164;2023-07-13T00:04:17;99710.88;;;18.05;61.95
16777;BME280;8505;49.456;8.164;2023-07-13T00:06:46;99699.53;;;17.85;62.27
16777;BME280;8505;49.456;8.164;2023-07-13T00:09:16;99710.63;;;17.89;62.76
16777;BME280;8505;49.456;8.164;2023-07-13T00:11:45;99713.75;;;17.86;62.95
16777;BME280;8505;49.456;8.164;2023-07-13T00:14:14;99705.91;;;17.84;62.85
16777;BME280;8505;49.456;8.164;2023-07-13T00:16:43;99704.31;;;17.83;63.07
16777;BME280;8505;49.456;8.164;2023-07-13T00:19:11;99713.84;;;17.72;62.82
16777;BME280;8505;49.456;8.164;2023-07-13T00:21:39;99715.59;;;17.60;63.66
16777;BME280;8505;49.456;8.164;2023-07-13T00:24:08;99718.06;;;17.55;63.76
16777;BME280;8505;49.456;8.164;2023-07-13T00:26:41;99716.00;;;17.57;63.85
16777;BME280;8505;49.456;8.164;2023-07-13T00:29:11;99709.97;;;17.68;63.62
16777;BME280;8505;49.456;8.164;2023-07-13T00:31:39;99712.53;;;17.50;63.54
16777;BME280;8505;49.456;8.164;2023-07-13T00:34:06;99715.94;;;17.39;63.77
16777;BME280;8505;49.456;8.164;2023-07-13T00:36:34;99719.97;;;17.48;63.77
16777;BME280;8505;49.456;8.164;2023-07-13T00:39:02;99716.91;;;17.45;63.37
16777;BME280;8505;49.456;8.164;2023-07-13T00:41:31;99732.94;;;17.51;63.11
16777;BME280;8505;49.456;8.164;2023-07-13T00:44:00;99725.28;;;17.55;62.42
16777;BME280;8505;49.456;8.164;2023-07-13T00:46:30;99734.34;;;17.60;62.14
16777;BME280;8505;49.456;8.164;2023-07-13T00:49:01;99727.13;;;17.54;62.13
16777;BME280;8505;49.456;8.164;2023-07-13T00:51:33;99737.47;;;17.51;62.13
16777;BME280;8505;49.456;8.164;2023-07-13T00:54:05;99740.09;;;17.57;61.95
16777;BME280;8505;49.456;8.164;2023-07-13T00:56:34;99743.38;;;17.59;61.71
16777;BME280;8505;49.456;8.164;2023-07-13T00:59:05;99737.03;;;17.54;62.01
16777;BME280;8505;49.456;8.164;2023-07-13T01:01:34;99739.16;;;17.45;62.29
16777;BME280;8505;49.456;8.164;2023-07-13T01:04:03;99737.75;;;17.36;63.22
16777;BME280;8505;49.456;8.164;2023-07-13T01:06:35;99740.28;;;17.24;64.05
16777;BME280;8505;49.456;8.164;2023-07-13T01:09:04;99746.38;;;17.00;64.73
16777;BME280;8505;49.456;8.164;2023-07-13T01:11:32;99747.84;;;17.03;64.91
16777;BME280;8505;49.456;8.164;2023-07-13T01:14:00;99745.22;;;16.89;65.25
16777;BME280;8505;49.456;8.164;2023-07-13T01:16:31;99741.06;;;16.93;65.16
16777;BME280;8505;49.456;8.164;2023-07-13T01:19:00;99733.22;;;16.98;65.26
16777;BME280;8505;49.456;8.164;2023-07-13T01:21:32;99734.75;;;16.81;65.66
16777;BME280;8505;49.456;8.164;2023-07-13T01:24:01;99743.00;;;16.73;66.28
16777;BME280;8505;49.456;8.164;2023-07-13T01:26:29;99745.28;;;16.50;67.39
16777;BME280;8505;49.456;8.164;2023-07-13T01:28:56;99746.13;;;16.37;68.15
16777;BME280;8505;49.456;8.164;2023-07-13T01:31:24;99752.13;;;16.33;68.63
16777;BME280;8505;49.456;8.164;2023-07-13T01:33:52;99745.94;;;16.39;68.14
16777;BME280;8505;49.456;8.164;2023-07-13T01:36:20;99749.88;;;16.23;68.84
16777;BME280;8505;49.456;8.164;2023-07-13T01:38:49;99735.47;;;16.17;69.21
16777;BME280;8505;49.456;8.164;2023-07-13T01:41:17;99736.31;;;16.11;69.46
16777;BME280;8505;49.456;8.164;2023-07-13T01:43:45;99745.97;;;16.12;69.25
16777;BME280;8505;49.456;8.164;2023-07-13T01:46:12;99743.50;;;16.11;69.63
16777;BME280;8505;49.456;8.164;2023-07-13T01:48:43;99743.91;;;16.14;69.13
16777;BME280;8505;49.456;8.164;2023-07-13T01:51:11;99741.69;;;15.98;69.67
16777;BME280;8505;49.456;8.164;2023-07-13T01:53:39;99744.13;;;15.93;69.95
16777;BME280;8505;49.456;8.164;2023-07-13T01:56:08;99749.25;;;15.82;70.63
16777;BME280;8505;49.456;8.164;2023-07-13T01:58:37;99745.75;;;15.74;71.06
16777;BME280;8505;49.456;8.164;2023-07-13T02:01:04;99749.06;;;15.70;71.08
16777;BME280;8505;49.456;8.164;2023-07-13T02:03:32;99756.03;;;15.64;71.51
16777;BME280;8505;49.456;8.164;2023-07-13T02:06:00;99759.25;;;15.47;72.07
16777;BME280;8505;49.456;8.164;2023-07-13T02:08:28;99757.06;;;15.63;71.64
16777;BME280;8505;49.456;8.164;2023-07-13T02:10:55;99744.53;;;15.57;71.55
16777;BME280;8505;49.456;8.164;2023-07-13T02:13:25;99752.53;;;15.57;71.95
16777;BME280;8505;49.456;8.164;2023-07-13T02:15:52;99756.44;;;15.55;71.48
16777;BME280;8505;49.456;8.164;2023-07-13T02:18:20;99751.44;;;15.38;72.36
16777;BME280;8505;49.456;8.164;2023-07-13T02:20:48;99756.56;;;15.40;72.63
16777;BME280;8505;49.456;8.164;2023-07-13T02:23:16;99758.41;;;15.33;72.65
16777;BME280;8505;49.456;8.164;2023-07-13T02:25:43;99756.56;;;15.33;72.86
16777;BME280;8505;49.456;8.164;2023-07-13T02:28:11;99757.56;;;15.32;72.62
16777;BME280;8505;49.456;8.164;2023-07-13T02:30:40;99766.16;;;15.21;73.84
16777;BME280;8505;49.456;8.164;2023-07-13T02:33:08;99766.41;;;15.33;73.50
16777;BME280;8505;49.456;8.164;2023-07-13T02:35:38;99768.63;;;15.16;74.05
16777;BME280;8505;49.456;8.164;2023-07-13T02:38:06;99774.69;;;14.97;75.03
16777;BME280;8505;49.456;8.164;2023-07-13T02:40:35;99765.69;;;14.98;74.90
16777;BME280;8505;49.456;8.164;2023-07-13T02:43:03;99762.16;;;14.91;75.67
16777;BME280;8505;49.456;8.164;2023-07-13T02:45:30;99753.13;;;14.85;75.57
16777;BME280;8505;49.456;8.164;2023-07-13T02:48:00;99763.16;;;14.83;75.58
16777;BME280;8505;49.456;8.164;2023-07-13T02:50:27;99753.88;;;14.73;76.22
16777;BME280;8505;49.456;8.164;2023-07-13T02:52:55;99755.34;;;14.82;75.76
16777;BME280;8505;49.456;8.164;2023-07-13T02:55:23;99758.97;;;14.68;75.93
16777;BME280;8505;49.456;8.164;2023-07-13T02:57:50;99748.28;;;14.61;76.39
16777;BME280;8505;49.456;8.164;2023-07-13T03:00:18;99748.09;;;14.63;76.39
16777;BME280;8505;49.456;8.164;2023-07-13T03:02:46;99763.63;;;14.59;76.53
16777;BME280;8505;49.456;8.164;2023-07-13T03:05:16;99752.09;;;14.52;77.12
16777;BME280;8505;49.456;8.164;2023-07-13T03:07:44;99757.63;;;14.44;77.50
16777;BME280;8505;49.456;8.164;2023-07-13T03:10:12;99760.88;;;14.46;77.49
16777;BME280;8505;49.456;8.164;2023-07-13T03:12:40;99766.84;;;14.48;76.73
16777;BME280;8505;49.456;8.164;2023-07-13T03:15:08;99766.84;;;14.48;76.55
16777;BME280;8505;49.456;8.164;2023-07-13T03:17:36;99769.06;;;14.44;76.66
16777;BME280;8505;49.456;8.164;2023-07-13T03:20:05;99765.28;;;14.32;77.37
16777;BME280;8505;49.456;8.164;2023-07-13T03:22:34;99765.91;;;14.34;77.51
16777;BME280;8505;49.456;8.164;2023-07-13T03:25:03;99767.47;;;14.22;77.73
16777;BME280;8505;49.456;8.164;2023-07-13T03:27:31;99777.53;;;14.27;77.61
16777;BME280;8505;49.456;8.164;2023-07-13T03:29:58;99775.19;;;14.38;77.03
16777;BME280;8505;49.456;8.164;2023-07-13T03:32:26;99778.59;;;14.32;76.88
16777;BME280;8505;49.456;8.164;2023-07-13T03:34:54;99774.31;;;14.31;77.18
16777;BME280;8505;49.456;8.164;2023-07-13T03:37:21;99777.75;;;14.25;77.18
16777;BME280;8505;49.456;8.164;2023-07-13T03:39:50;99776.34;;;14.29;76.97
16777;BME280;8505;49.456;8.164;2023-07-13T03:42:18;99782.25;;;14.25;76.81
16777;BME280;8505;49.456;8.164;2023-07-13T03:44:46;99781.44;;;14.24;77.02
16777;BME280;8505;49.456;8.164;2023-07-13T03:47:19;99784.09;;;14.24;76.86
16777;BME280;8505;49.456;8.164;2023-07-13T03:49:46;99788.78;;;14.22;76.82
16777;BME280;8505;49.456;8.164;2023-07-13T03:52:14;99790.66;;;14.28;77.00
16777;BME280;8505;49.456;8.164;2023-07-13T03:54:42;99787.50;;;14.39;76.16
16777;BME280;8505;49.456;8.164;2023-07-13T03:57:11;99785.19;;;14.36;76.04
16777;BME280;8505;49.456;8.164;2023-07-13T03:59:39;99793.38;;;14.56;75.44
16777;BME280;8505;49.456;8.164;2023-07-13T04:02:07;99794.16;;;14.56;75.15
16777;BME280;8505;49.456;8.164;2023-07-13T04:04:35;99801.84;;;14.73;74.82
16777;BME280;8505;49.456;8.164;2023-07-13T04:07:03;99795.81;;;14.57;74.45
16777;BME280;8505;49.456;8.164;2023-07-13T04:09:31;99794.94;;;14.44;75.16
16777;BME280;8505;49.456;8.164;2023-07-13T04:11:58;99787.72;;;14.44;75.66
16777;BME280;8505;49.456;8.164;2023-07-13T04:14:28;99788.13;;;14.41;75.66
16777;BME280;8505;49.456;8.164;2023-07-13T04:16:55;99792.97;;;14.31;76.06
16777;BME280;8505;49.456;8.164;2023-07-13T04:19:24;99796.13;;;14.41;75.91
16777;BME280;8505;49.456;8.164;2023-07-13T04:21:51;99802.31;;;14.48;75.27
16777;BME280;8505;49.456;8.164;2023-07-13T04:24:19;99798.72;;;14.63;74.68
16777;BME280;8505;49.456;8.164;2023-07-13T04:26:47;99797.72;;;14.70;74.37
16777;BME280;8505;49.456;8.164;2023-07-13T04:29:14;99805.34;;;14.73;74.08
16777;BME280;8505;49.456;8.164;2023-07-13T04:31:43;99799.88;;;14.88;73.62
16777;BME280;8505;49.456;8.164;2023-07-13T04:34:11;99804.41;;;14.94;72.80
16777;BME280;8505;49.456;8.164;2023-07-13T04:36:39;99805.66;;;14.91;73.16
16777;BME280;8505;49.456;8.164;2023-07-13T04:39:06;99800.09;;;14.86;73.33
16777;BME280;8505;49.456;8.164;2023-07-13T04:41:35;99811.13;;;14.83;73.37
16777;BME280;8505;49.456;8.164;2023-07-13T04:44:03;99806.25;;;14.87;73.16
16777;BME280;8505;49.456;8.164;2023-07-13T04:46:31;99813.56;;;14.78;73.92
16777;BME280;8505;49.456;8.164;2023-07-13T04:49:00;99804.84;;;14.97;73.11
16777;BME280;8505;49.456;8.164;2023-07-13T04:51:30;99808.41;;;15.11;72.77
16777;BME280;8505;49.456;8.164;2023-07-13T04:53:57;99811.72;;;15.20;72.29
16777;BME280;8505;49.456;8.164;2023-07-13T04:56:27;99812.44;;;15.42;71.29
16777;BME280;8505;49.456;8.164;2023-07-13T04:58:55;99820.50;;;15.55;70.87
16777;BME280;8505;49.456;8.164;2023-07-13T05:01:23;99818.88;;;15.60;69.93
16777;BME280;8505;49.456;8.164;2023-07-13T05:03:51;99824.91;;;15.34;71.24
16777;BME280;8505;49.456;8.164;2023-07-13T05:06:20;99822.91;;;15.50;70.90
16777;BME280;8505;49.456;8.164;2023-07-13T05:08:48;99824.56;;;15.51;70.51
16777;BME280;8505;49.456;8.164;2023-07-13T05:11:17;99822.78;;;15.71;70.13
16777;BME280;8505;49.456;8.164;2023-07-13T05:13:45;99824.88;;;15.95;69.13
16777;BME280;8505;49.456;8.164;2023-07-13T05:16:13;99819.34;;;16.10;68.55
16777;BME280;8505;49.456;8.164;2023-07-13T05:18:41;99827.59;;;16.35;67.62
16777;BME280;8505;49.456;8.164;2023-07-13T05:21:10;99832.69;;;16.43;67.11
16777;BME280;8505;49.456;8.164;2023-07-13T05:23:40;99831.69;;;16.37;67.66
16777;BME280;8505;49.456;8.164;2023-07-13T05:26:09;99832.09;;;16.21;68.40
16777;BME280;8505;49.456;8.164;2023-07-13T05:28:37;99834.53;;;16.42;67.53
16777;BME280;8505;49.456;8.164;2023-07-13T05:31:07;99836.41;;;16.68;66.85
16777;BME280;8505;49.456;8.164;2023-07-13T05:33:36;99833.88;;;16.99;65.49
16777;BME280;8505;49.456;8.164;2023-07-13T05:36:04;99833.25;;;16.97;65.47
16777;BME280;8505;49.456;8.164;2023-07-13T05:38:31;99831.19;;;16.99;65.37
16777;BME280;8505;49.456;8.164;2023-07-13T05:41:01;99835.28;;;17.15;65.11
16777;BME280;8505;49.456;8.164;2023-07-13T05:43:31;99830.88;;;17.34;64.23
16777;BME280;8505;49.456;8.164;2023-07-13T05:45:59;99838.28;;;17.32;64.15
16777;BME280;8505;49.456;8.164;2023-07-13T05:48:26;99839.34;;;17.18;65.07
16777;BME280;8505;49.456;8.164;2023-07-13T05:50:54;99848.66;;;17.09;65.45
16777;BME280;8505;49.456;8.164;2023-07-13T05:53:22;99849.84;;;17.19;65.21
16777;BME280;8505;49.456;8.164;2023-07-13T05:55:50;99849.78;;;17.39;64.35
16777;BME280;8505;49.456;8.164;2023-07-13T05:58:20;99849.97;;;17.44;64.10
16777;BME280;8505;49.456;8.164;2023-07-13T06:00:48;99853.81;;;17.61;63.51
16777;BME280;8505;49.456;8.164;2023-07-13T06:03:16;99857.22;;;17.82;62.84
16777;BME280;8505;49.456;8.164;2023-07-13T06:05:44;99852.16;;;17.98;62.25
16777;BME280;8505;49.456;8.164;2023-07-13T06:08:12;99859.41;;;17.91;62.07
16777;BME280;8505;49.456;8.164;2023-07-13T06:10:40;99854.91;;;18.16;61.36
16777;BME280;8505;49.456;8.164;2023-07-13T06:13:08;99861.31;;;18.40;60.72
16777;BME280;8505;49.456;8.164;2023-07-13T06:15:37;99863.78;;;18.42;60.22
16777;BME280;8505;49.456;8.164;2023-07-13T06:18:05;99872.34;;;18.32;60.81
16777;BME280;8505;49.456;8.164;2023-07-13T06:20:33;99873.09;;;18.39;60.43
16777;BME280;8505;49.456;8.164;2023-07-13T06:23:02;99878.69;;;18.38;59.69
16777;BME280;8505;49.456;8.164;2023-07-13T06:25:29;99875.66;;;18.52;60.81
16777;BME280;8505;49.456;8.164;2023-07-13T06:27:57;99884.50;;;18.59;58.62
16777;BME280;8505;49.456;8.164;2023-07-13T06:30:25;99880.88;;;18.47;59.20
16777;BME280;8505;49.456;8.164;2023-07-13T06:32:54;99884.50;;;18.59;59.10
16777;BME280;8505;49.456;8.164;2023-07-13T06:35:22;99893.34;;;18.85;58.37
16777;BME280;8505;49.456;8.164;2023-07-13T06:37:50;99890.22;;;18.70;58.64
16777;BME280;8505;49.456;8.164;2023-07-13T06:40:17;99889.19;;;18.89;58.58
16777;BME280;8505;49.456;8.164;2023-07-13T06:42:45;99896.28;;;19.02;58.26
16777;BME280;8505;49.456;8.164;2023-07-13T06:45:13;99896.75;;;19.17;57.76
16777;BME280;8505;49.456;8.164;2023-07-13T06:47:40;99899.28;;;19.12;57.43
16777;BME280;8505;49.456;8.164;2023-07-13T06:50:10;99895.72;;;19.18;56.53
16777;BME280;8505;49.456;8.164;2023-07-13T06:52:37;99904.34;;;19.38;56.46
16777;BME280;8505;49.456;8.164;2023-07-13T06:55:06;99898.91;;;19.45;56.41
16777;BME280;8505;49.456;8.164;2023-07-13T06:57:34;99904.75;;;19.60;56.24
16777;BME280;8505;49.456;8.164;2023-07-13T07:00:02;99898.75;;;19.76;55.83
16777;BME280;8505;49.456;8.164;2023-07-13T07:02:30;99896.75;;;20.01;54.77
16777;BME280;8505;49.456;8.164;2023-07-13T07:04:58;99895.66;;;19.91;54.93
16777;BME280;8505;49.456;8.164;2023-07-13T07:07:27;99895.00;;;20.07;54.02
16777;BME280;8505;49.456;8.164;2023-07-13T07:09:55;99897.88;;;20.24;54.13
16777;BME280;8505;49.456;8.164;2023-07-13T07:12:23;99900.03;;;20.45;53.57
16777;BME280;8505;49.456;8.164;2023-07-13T07:14:50;99897.84;;;20.77;52.64
16777;BME280;8505;49.456;8.164;2023-07-13T07:17:18;99901.13;;;20.90;53.11
16777;BME280;8505;49.456;8.164;2023-07-13T07:19:49;99909.44;;;20.89;54.27
16777;BME280;8505;49.456;8.164;2023-07-13T07:22:17;99908.94;;;21.50;51.96
16777;BME280;8505;49.456;8.164;2023-07-13T07:24:46;99908.91;;;21.62;51.11
16777;BME280;8505;49.456;8.164;2023-07-13T07:27:14;99908.28;;;21.71;51.28
16777;BME280;8505;49.456;8.164;2023-07-13T07:29:45;99909.66;;;21.46;51.92
16777;BME280;8505;49.456;8.164;2023-07-13T07:32:32;99905.81;;;21.42;51.43
16777;BME280;8505;49.456;8.164;2023-07-13T07:35:04;99895.84;;;21.30;50.84
16777;BME280;8505;49.456;8.164;2023-07-13T07:37:31;99900.16;;;21.43;49.39
16777;BME280;8505;49.456;8.164;2023-07-13T07:40:04;99902.81;;;21.55;48.63
16777;BME280;8505;49.456;8.164;2023-07-13T07:42:35;99902.56;;;21.16;47.57
16777;BME280;8505;49.456;8.164;2023-07-13T07:45:03;99897.19;;;21.56;46.88
16777;BME280;8505;49.456;8.164;2023-07-13T07:47:32;99897.16;;;22.08;45.95
16777;BME280;8505;49.456;8.164;2023-07-13T07:50:00;99892.44;;;22.32;44.72
16777;BME280;8505;49.456;8.164;2023-07-13T07:52:28;99891.06;;;22.46;44.73
16777;BME280;8505;49.456;8.164;2023-07-13T07:54:56;99891.34;;;22.66;44.15
16777;BME280;8505;49.456;8.164;2023-07-13T07:57:45;99896.41;;;23.34;42.58
16777;BME280;8505;49.456;8.164;2023-07-13T08:00:19;99906.47;;;23.56;43.01
16777;BME280;8505;49.456;8.164;2023-07-13T08:02:49;99908.88;;;23.35;41.91
16777;BME280;8505;49.456;8.164;2023-07-13T08:05:20;99905.53;;;23.07;41.98
16777;BME280;8505;49.456;8.164;2023-07-13T08:08:04;99903.06;;;23.05;41.34
16777;BME280;8505;49.456;8.164;2023-07-13T08:10:35;99909.00;;;23.46;40.70
16777;BME280;8505;49.456;8.164;2023-07-13T08:13:04;99903.25;;;23.59;41.03
16777;BME280;8505;49.456;8.164;2023-07-13T08:15:35;99899.41;;;24.03;39.66
16777;BME280;8505;49.456;8.164;2023-07-13T08:18:04;99897.97;;;23.96;39.64
16777;BME280;8505;49.456;8.164;2023-07-13T08:20:31;99886.56;;;24.79;39.06
16777;BME280;8505;49.456;8.164;2023-07-13T08:22:59;99891.56;;;24.92;39.46
16777;BME280;8505;49.456;8.164;2023-07-13T08:25:28;99891.72;;;24.81;39.15
16777;BME280;8505;49.456;8.164;2023-07-13T08:27:55;99890.44;;;24.93;38.05
16777;BME280;8505;49.456;8.164;2023-07-13T08:30:25;99887.06;;;24.76;38.22
16777;BME280;8505;49.456;8.164;2023-07-13T08:32:53;99893.75;;;25.01;37.86
16777;BME280;8505;49.456;8.164;2023-07-13T08:35:21;99886.03;;;24.82;37.76
16777;BME280;8505;49.456;8.164;2023-07-13T08:37:48;99883.44;;;24.61;37.80
16777;BME280;8505;49.456;8.164;2023-07-13T08:40:17;99885.44;;;24.75;38.64
16777;BME280;8505;49.456;8.164;2023-07-13T08:42:53;99883.28;;;25.19;37.21
16777;BME280;8505;49.456;8.164;2023-07-13T08:45:25;99881.63;;;25.60;36.74
16777;BME280;8505;49.456;8.164;2023-07-13T08:48:00;99888.91;;;24.71;38.18
16777;BME280;8505;49.456;8.164;2023-07-13T08:50:31;99876.75;;;25.67;37.15
16777;BME280;8505;49.456;8.164;2023-07-13T08:53:20;99880.78;;;25.60;36.11
16777;BME280;8505;49.456;8.164;2023-07-13T08:55:51;99884.91;;;25.72;36.38
16777;BME280;8505;49.456;8.164;2023-07-13T08:58:25;99879.63;;;25.46;36.26
16777;BME280;8505;49.456;8.164;2023-07-13T09:01:01;99884.00;;;25.00;36.68
16777;BME280;8505;49.456;8.164;2023-07-13T09:03:37;99876.75;;;24.73;36.97
16777;BME280;8505;49.456;8.164;2023-07-13T09:06:09;99875.38;;;25.70;35.84
16777;BME280;8505;49.456;8.164;2023-07-13T09:08:51;99879.25;;;25.22;36.52
16777;BME280;8505;49.456;8.164;2023-07-13T09:11:32;99878.00;;;25.50;35.75
16777;BME280;8505;49.456;8.164;2023-07-13T09:14:09;99875.47;;;25.23;36.04
16777;BME280;8505;49.456;8.164;2023-07-13T09:16:41;99879.31;;;24.53;36.37
16777;BME280;8505;49.456;8.164;2023-07-13T09:19:20;99870.19;;;25.06;36.73
16777;BME280;8505;49.456;8.164;2023-07-13T09:21:52;99870.97;;;24.96;36.50
16777;BME280;8505;49.456;8.164;2023-07-13T09:24:29;99881.47;;;25.35;35.89
16777;BME280;8505;49.456;8.164;2023-07-13T09:27:00;99879.91;;;24.97;36.88
16777;BME280;8505;49.456;8.164;2023-07-13T09:29:33;99878.81;;;25.45;36.51
16777;BME280;8505;49.456;8.164;2023-07-13T09:32:05;99881.25;;;25.52;36.02
16777;BME280;8505;49.456;8.164;2023-07-13T09:34:35;99882.47;;;25.76;35.95
16777;BME280;8505;49.456;8.164;2023-07-13T09:37:03;99884.66;;;25.89;34.45
16777;BME280;8505;49.456;8.164;2023-07-13T09:39:35;99878.59;;;25.57;34.78
16777;BME280;8505;49.456;8.164;2023-07-13T09:42:15;99882.34;;;25.56;34.88
16777;BME280;8505;49.456;8.164;2023-07-13T09:44:51;99880.78;;;25.60;35.68
16777;BME280;8505;49.456;8.164;2023-07-13T09:47:23;99885.50;;;25.95;34.90
16777;BME280;8505;49.456;8.164;2023-07-13T09:49:57;99884.41;;;25.96;35.66
16777;BME280;8505;49.456;8.164;2023-07-13T09:52:41;99882.25;;;26.23;34.23
16777;BME280;8505;49.456;8.164;2023-07-13T09:55:29;99890.34;;;25.88;34.62
16777;BME280;8505;49.456;8.164;2023-07-13T09:57:58;99880.31;;;25.93;34.50
16777;BME280;8505;49.456;8.164;2023-07-13T10:00:32;99884.41;;;26.06;34.46
16777;BME280;8505;49.456;8.164;2023-07-13T10:03:03;99878.25;;;26.66;35.50
16777;BME280;8505;49.456;8.164;2023-07-13T10:05:40;99879.03;;;26.36;34.09
16777;BME280;8505;49.456;8.164;2023-07-13T10:08:20;99878.22;;;26.36;34.20
16777;BME280;8505;49.456;8.164;2023-07-13T10:10:53;99886.13;;;26.57;33.61
16777;BME280;8505;49.456;8.164;2023-07-13T10:13:28;99889.66;;;26.33;33.32
16777;BME280;8505;49.456;8.164;2023-07-13T10:15:58;99881.19;;;26.14;33.90
16777;BME280;8505;49.456;8.164;2023-07-13T10:18:32;99883.94;;;26.60;32.55
16777;BME280;8505;49.456;8.164;2023-07-13T10:21:11;99886.34;;;27.07;31.84
16777;BME280;8505;49.456;8.164;2023-07-13T10:24:05;99874.94;;;26.94;32.21
16777;BME280;8505;49.456;8.164;2023-07-13T10:26:45;99869.25;;;26.61;32.58
16777;BME280;8505;49.456;8.164;2023-07-13T10:29:15;99893.44;;;26.42;33.02
16777;BME280;8505;49.456;8.164;2023-07-13T10:31:45;99880.69;;;26.27;33.01
16777;BME280;8505;49.456;8.164;2023-07-13T10:34:14;99883.38;;;26.42;32.87
16777;BME280;8505;49.456;8.164;2023-07-13T10:36:46;99885.84;;;26.39;33.02
16777;BME280;8505;49.456;8.164;2023-07-13T10:39:17;99888.31;;;26.35;33.01
16777;BME280;8505;49.456;8.164;2023-07-13T10:41:50;99877.94;;;27.03;32.98
16777;BME280;8505;49.456;8.164;2023-07-13T10:44:23;99874.38;;;26.97;32.36
16777;BME280;8505;49.456;8.164;2023-07-13T10:46:55;99886.03;;;27.18;31.29
16777;BME280;8505;49.456;8.164;2023-07-13T10:49:26;99882.78;;;27.11;31.38
16777;BME280;8505;49.456;8.164;2023-07-13T10:51:55;99876.59;;;26.65;31.58
16777;BME280;8505;49.456;8.164;2023-07-13T10:54:27;99880.03;;;27.16;31.04
16777;BME280;8505;49.456;8.164;2023-07-13T10:57:16;99885.28;;;27.72;30.47
16777;BME280;8505;49.456;8.164;2023-07-13T10:59:47;99883.19;;;28.03;30.36
16777;BME280;8505;49.456;8.164;2023-07-13T11:02:25;99873.31;;;26.93;30.04
16777;BME280;8505;49.456;8.164;2023-07-13T11:04:56;99870.34;;;26.90;30.95
16777;BME280;8505;49.456;8.164;2023-07-13T11:07:26;99870.06;;;26.61;30.96
16777;BME280;8505;49.456;8.164;2023-07-13T11:09:56;99872.22;;;26.84;30.76
16777;BME280;8505;49.456;8.164;2023-07-13T11:12:49;99876.00;;;26.12;31.78
16777;BME280;8505;49.456;8.164;2023-07-13T11:15:30;99874.97;;;26.24;32.13
16777;BME280;8505;49.456;8.164;2023-07-13T11:18:02;99886.09;;;26.93;31.62
16777;BME280;8505;49.456;8.164;2023-07-13T11:20:34;99883.88;;;27.10;30.50
16777;BME280;8505;49.456;8.164;2023-07-13T11:23:30;99869.25;;;26.76;31.11
16777;BME280;8505;49.456;8.164;2023-07-13T11:26:00;99875.53;;;26.46;31.26
16777;BME280;8505;49.456;8.164;2023-07-13T11:28:31;99873.63;;;26.31;31.63
16777;BME280;8505;49.456;8.164;2023-07-13T11:31:13;99863.50;;;26.06;31.79
16777;BME280;8505;49.456;8.164;2023-07-13T11:33:50;99864.06;;;25.98;31.38
16777;BME280;8505;49.456;8.164;2023-07-13T11:36:23;99865.16;;;26.02;31.60
16777;BME280;8505;49.456;8.164;2023-07-13T11:38:58;99872.41;;;25.66;32.62
16777;BME280;8505;49.456;8.164;2023-07-13T11:41:31;99886.50;;;25.68;33.04
16777;BME280;8505;49.456;8.164;2023-07-13T11:44:10;99875.63;;;25.63;33.22
16777;BME280;8505;49.456;8.164;2023-07-13T11:46:38;99873.41;;;25.55;33.31
16777;BME280;8505;49.456;8.164;2023-07-13T11:49:06;99873.47;;;25.65;32.66
16777;BME280;8505;49.456;8.164;2023-07-13T11:51:36;99878.22;;;25.38;32.84
16777;BME280;8505;49.456;8.164;2023-07-13T11:54:10;99876.03;;;25.30;33.26
16777;BME280;8505;49.456;8.164;2023-07-13T11:56:42;99875.97;;;25.20;34.38
16777;BME280;8505;49.456;8.164;2023-07-13T11:59:12;99890.50;;;24.98;34.86
16777;BME280;8505;49.456;8.164;2023-07-13T12:01:43;99880.78;;;25.08;34.24
16777;BME280;8505;49.456;8.164;2023-07-13T12:04:20;99885.00;;;25.35;34.37
16777;BME280;8505;49.456;8.164;2023-07-13T12:06:55;99885.88;;;25.51;33.08
16777;BME280;8505;49.456;8.164;2023-07-13T12:09:27;99882.47;;;25.76;32.91
16777;BME280;8505;49.456;8.164;2023-07-13T12:11:57;99881.44;;;26.02;32.57
16777;BME280;8505;49.456;8.164;2023-07-13T12:14:26;99877.09;;;25.91;32.71
16777;BME280;8505;49.456;8.164;2023-07-13T12:16:55;99874.06;;;25.83;32.58
16777;BME280;8505;49.456;8.164;2023-07-13T12:19:26;99874.09;;;26.23;32.74
16777;BME280;8505;49.456;8.164;2023-07-13T12:21:58;99881.38;;;25.77;32.56
16777;BME280;8505;49.456;8.164;2023-07-13T12:24:26;99874.97;;;26.44;32.02
16777;BME280;8505;49.456;8.164;2023-07-13T12:27:00;99882.03;;;26.40;31.09
16777;BME280;8505;49.456;8.164;2023-07-13T12:29:28;99871.69;;;26.16;31.60
16777;BME280;8505;49.456;8.164;2023-07-13T12:31:56;99878.78;;;26.33;31.27
16777;BME280;8505;49.456;8.164;2023-07-13T12:34:25;99871.69;;;26.82;31.52
16777;BME280;8505;49.456;8.164;2023-07-13T12:36:59;99876.78;;;27.19;30.98
16777;BME280;8505;49.456;8.164;2023-07-13T12:39:32;99882.84;;;26.76;31.35
16777;BME280;8505;49.456;8.164;2023-07-13T12:42:17;99895.34;;;26.62;32.13
16777;BME280;8505;49.456;8.164;2023-07-13T12:44:47;99901.59;;;26.27;32.09
16777;BME280;8505;49.456;8.164;2023-07-13T12:47:15;99887.75;;;26.38;32.82
16777;BME280;8505;49.456;8.164;2023-07-13T12:49:49;99883.34;;;26.12;32.25
16777;BME280;8505;49.456;8.164;2023-07-13T12:52:23;99899.41;;;26.49;31.29
16777;BME280;8505;49.456;8.164;2023-07-13T12:54:56;99875.78;;;26.44;30.54
16777;BME280;8505;49.456;8.164;2023-07-13T12:57:38;99883.28;;;27.33;29.93
16777;BME280;8505;49.456;8.164;2023-07-13T13:00:20;99886.19;;;28.06;30.15
16777;BME280;8505;49.456;8.164;2023-07-13T13:02:50;99885.91;;;27.59;29.84
16777;BME280;8505;49.456;8.164;2023-07-13T13:05:18;99879.22;;;27.26;30.10
16777;BME280;8505;49.456;8.164;2023-07-13T13:07:51;99885.00;;;26.94;31.24
16777;BME280;8505;49.456;8.164;2023-07-13T13:10:19;99883.63;;;26.86;31.34
16777;BME280;8505;49.456;8.164;2023-07-13T13:12:48;99885.03;;;26.33;31.24
16777;BME280;8505;49.456;8.164;2023-07-13T13:15:16;99888.81;;;26.32;32.36
16777;BME280;8505;49.456;8.164;2023-07-13T13:17:44;99883.38;;;26.22;32.59
16777;BME280;8505;49.456;8.164;2023-07-13T13:20:15;99887.94;;;25.91;33.24
16777;BME280;8505;49.456;8.164;2023-07-13T13:22:43;99882.78;;;26.05;33.32
16777;BME280;8505;49.456;8.164;2023-07-13T13:25:14;99884.44;;;26.21;33.81
16777;BME280;8505;49.456;8.164;2023-07-13T13:27:43;99895.31;;;26.16;33.25